Time;durP1;ratioP1;P1;durP2;ratioP2;P2;SDS_P1;SDS_P2;PMS_P1;PMS_P2;Temp;Humidity;BMP_temperature;BMP_pressure;BME280_temperature;BME280_humidity;BME280_pressure;Samples;Min_cycle;Max_cycle;Signal;HPM_P1;HPM_P2
2021/07/18 00:01:21;;;;;;;9.48;6.20;;;16.60;99.90;;;;;;5091064;28;20055;-64
2021/07/18 00:03:47;;;;;;;13.23;6.75;;;16.60;99.90;;;;;;5091256;28;20040;-65
2021/07/18 00:06:12;;;;;;;13.20;6.82;;;16.60;99.90;;;;;;5091134;28;20028;-65
2021/07/18 00:08:38;;;;;;;12.07;6.95;;;16.60;99.90;;;;;;5091280;28;20652;-65
2021/07/18 00:11:04;;;;;;;15.88;7.38;;;16.50;99.90;;;;;;5090678;28;20113;-65
2021/07/18 00:13:30;;;;;;;11.57;6.70;;;16.50;99.90;;;;;;5091324;28;20090;-65
2021/07/18 00:15:55;;;;;;;10.55;6.47;;;16.50;99.90;;;;;;5089292;28;20077;-64
2021/07/18 00:18:21;;;;;;;10.05;6.60;;;16.50;99.90;;;;;;5091204;28;20032;-65
2021/07/18 00:20:49;;;;;;;9.85;6.90;;;16.50;99.90;;;;;;5090797;28;20477;-65
2021/07/18 00:23:16;;;;;;;8.48;6.10;;;16.40;99.90;;;;;;5094873;28;20067;-65
2021/07/18 00:25:43;;;;;;;6.97;5.97;;;16.40;99.90;;;;;;5094761;28;20047;-65
2021/07/18 00:28:09;;;;;;;6.88;5.72;;;16.40;99.90;;;;;;5094962;28;20068;-65
2021/07/18 00:30:34;;;;;;;11.73;7.63;;;16.30;99.90;;;;;;5093502;28;20074;-65
2021/07/18 00:33:00;;;;;;;11.10;7.15;;;16.30;99.90;;;;;;5094951;28;20180;-65
2021/07/18 00:35:26;;;;;;;9.98;7.05;;;16.30;99.90;;;;;;5094606;28;20090;-64
2021/07/18 00:37:52;;;;;;;11.32;7.15;;;16.20;99.90;;;;;;5094555;28;20857;-65
2021/07/18 00:40:18;;;;;;;12.45;7.38;;;16.20;99.90;;;;;;5094419;28;20088;-65
2021/07/18 00:42:44;;;;;;;8.32;6.70;;;16.20;99.90;;;;;;5094527;28;20040;-65
2021/07/18 00:45:10;;;;;;;12.88;7.97;;;16.20;99.90;;;;;;5094191;28;20036;-65
2021/07/18 00:47:40;;;;;;;9.75;7.25;;;16.20;99.90;;;;;;5094003;28;20040;-65
2021/07/18 00:50:09;;;;;;;10.07;7.35;;;16.20;99.90;;;;;;5075223;28;20033;-65
2021/07/18 00:52:34;;;;;;;12.25;7.85;;;16.20;99.90;;;;;;5092063;28;20059;-65
2021/07/18 00:55:00;;;;;;;9.80;6.90;;;16.20;99.90;;;;;;5094142;28;20059;-65
2021/07/18 00:57:26;;;;;;;10.45;6.53;;;16.20;99.90;;;;;;5075557;28;20028;-65
2021/07/18 00:59:52;;;;;;;9.40;7.78;;;16.20;99.90;;;;;;5080087;28;20556;-65
2021/07/18 01:02:18;;;;;;;12.40;8.20;;;16.20;99.90;;;;;;5094489;28;20036;-65
2021/07/18 01:04:44;;;;;;;10.70;7.65;;;16.20;99.90;;;;;;5092679;28;20103;-65
2021/07/18 01:07:10;;;;;;;13.55;7.82;;;16.10;99.90;;;;;;5094143;28;20119;-65
2021/07/18 01:09:36;;;;;;;14.63;9.35;;;16.10;99.90;;;;;;5094000;28;20075;-65
2021/07/18 01:12:03;;;;;;;11.68;8.32;;;16.10;99.90;;;;;;5053967;28;20470;-65
2021/07/18 01:14:29;;;;;;;14.27;9.25;;;16.10;99.90;;;;;;5053829;28;20044;-65
2021/07/18 01:16:56;;;;;;;13.38;8.52;;;16.10;99.90;;;;;;5053778;28;20040;-65
2021/07/18 01:19:22;;;;;;;12.98;8.95;;;16.10;99.90;;;;;;5044467;28;20526;-65
2021/07/18 01:21:56;;;;;;;15.40;8.65;;;16.10;99.90;;;;;;5051703;28;20047;-65
2021/07/18 01:24:22;;;;;;;16.17;9.30;;;16.00;99.90;;;;;;5052888;28;20045;-65
2021/07/18 01:26:48;;;;;;;12.50;9.02;;;16.00;99.90;;;;;;5053339;28;20041;-65
2021/07/18 01:29:14;;;;;;;12.60;9.10;;;16.00;99.90;;;;;;5053725;28;20066;-65
2021/07/18 01:31:40;;;;;;;12.13;9.73;;;16.00;99.90;;;;;;5053115;28;20041;-65
2021/07/18 01:34:06;;;;;;;12.85;9.38;;;16.00;99.90;;;;;;5052758;28;20056;-65
2021/07/18 01:36:32;;;;;;;14.50;9.05;;;16.00;99.90;;;;;;5053266;28;20669;-65
2021/07/18 01:38:58;;;;;;;12.25;9.05;;;16.00;99.90;;;;;;5052102;28;20063;-65
2021/07/18 01:41:24;;;;;;;13.23;8.68;;;16.00;99.90;;;;;;5053391;28;20072;-65
2021/07/18 01:43:49;;;;;;;14.85;9.43;;;16.00;99.90;;;;;;5053344;28;20379;-65
2021/07/18 01:46:15;;;;;;;13.73;9.35;;;16.00;99.90;;;;;;5053176;28;20515;-65
2021/07/18 01:48:42;;;;;;;15.52;10.13;;;16.00;99.90;;;;;;5053328;28;20091;-65
2021/07/18 01:51:08;;;;;;;11.80;8.85;;;15.90;99.90;;;;;;5053037;28;20116;-65
2021/07/18 01:53:33;;;;;;;18.05;9.77;;;15.90;99.90;;;;;;5053495;28;20124;-65
2021/07/18 01:55:59;;;;;;;12.77;9.32;;;15.90;99.90;;;;;;5045885;28;20418;-65
2021/07/18 01:58:27;;;;;;;13.93;9.50;;;15.90;99.90;;;;;;5032002;28;20466;-65
2021/07/18 02:00:52;;;;;;;13.82;9.68;;;15.90;99.90;;;;;;5042247;28;20108;-65
2021/07/18 02:03:18;;;;;;;16.92;10.68;;;15.90;99.90;;;;;;5053231;28;20045;-65
2021/07/18 02:05:44;;;;;;;15.27;9.93;;;15.90;99.90;;;;;;5052707;28;20119;-65
2021/07/18 02:08:10;;;;;;;19.30;10.77;;;15.90;99.90;;;;;;5052640;28;20076;-65
2021/07/18 02:10:36;;;;;;;17.70;10.70;;;15.90;99.90;;;;;;5068329;28;20048;-65
2021/07/18 02:13:02;;;;;;;14.45;9.75;;;15.90;99.90;;;;;;5091336;28;20062;-66
2021/07/18 02:15:28;;;;;;;15.63;11.57;;;15.90;99.90;;;;;;5091745;28;20063;-65
2021/07/18 02:17:53;;;;;;;16.95;11.95;;;15.90;99.90;;;;;;5092219;28;20044;-64
2021/07/18 02:20:20;;;;;;;14.77;11.20;;;16.00;99.90;;;;;;5092638;28;20512;-65
2021/07/18 02:22:54;;;;;;;19.27;11.88;;;15.90;99.90;;;;;;5092819;28;20071;-65
2021/07/18 02:25:22;;;;;;;18.73;10.90;;;15.90;99.90;;;;;;5092689;28;20048;-65
2021/07/18 02:27:49;;;;;;;18.75;12.98;;;15.90;99.90;;;;;;5092685;28;20040;-65
2021/07/18 02:30:17;;;;;;;16.52;12.60;;;15.90;99.90;;;;;;5091118;28;20046;-65
2021/07/18 02:32:43;;;;;;;16.15;12.13;;;15.90;99.90;;;;;;5092124;28;20085;-65
2021/07/18 02:35:12;;;;;;;20.77;12.55;;;15.90;99.90;;;;;;5092133;28;20044;-65
2021/07/18 02:37:38;;;;;;;15.68;10.68;;;15.90;99.90;;;;;;5091961;28;20090;-64
2021/07/18 02:40:05;;;;;;;15.20;10.95;;;15.90;99.90;;;;;;5091114;28;20085;-65
2021/07/18 02:42:31;;;;;;;19.20;11.73;;;15.90;99.90;;;;;;5091667;28;20081;-65
2021/07/18 02:44:57;;;;;;;15.93;11.25;;;15.90;99.90;;;;;;5090654;28;20055;-65
2021/07/18 02:47:22;;;;;;;18.77;11.82;;;15.80;99.90;;;;;;5089882;28;20040;-64
2021/07/18 02:49:49;;;;;;;16.13;11.63;;;15.80;99.90;;;;;;5092108;28;20067;-65
2021/07/18 02:52:15;;;;;;;19.27;12.40;;;15.80;99.90;;;;;;5091501;28;20381;-64
2021/07/18 02:54:41;;;;;;;19.15;12.65;;;15.80;99.90;;;;;;5092267;28;20115;-65
2021/07/18 02:57:06;;;;;;;19.83;12.35;;;15.80;99.90;;;;;;5091763;28;20494;-65
2021/07/18 02:59:33;;;;;;;17.02;12.48;;;15.80;99.90;;;;;;5092107;28;20032;-65
2021/07/18 03:02:00;;;;;;;19.60;12.55;;;15.80;99.90;;;;;;5091697;28;20518;-65
2021/07/18 03:04:26;;;;;;;17.90;12.18;;;15.80;99.90;;;;;;5090617;28;20101;-65
2021/07/18 03:06:53;;;;;;;19.17;13.52;;;15.80;99.90;;;;;;5091637;28;20047;-65
2021/07/18 03:09:23;;;;;;;19.05;13.27;;;15.80;99.90;;;;;;5091942;28;20527;-65
2021/07/18 03:11:51;;;;;;;19.63;12.70;;;15.80;99.90;;;;;;5091628;28;20044;-65
2021/07/18 03:14:17;;;;;;;21.27;13.45;;;15.80;99.90;;;;;;5091643;28;20152;-65
2021/07/18 03:16:44;;;;;;;18.73;13.40;;;15.90;99.90;;;;;;5091686;28;20059;-65
2021/07/18 03:19:11;;;;;;;20.92;13.43;;;15.90;99.90;;;;;;5091738;28;20118;-66
2021/07/18 03:21:36;;;;;;;21.27;14.02;;;16.00;99.90;;;;;;5091493;28;20040;-64
2021/07/18 03:24:03;;;;;;;26.05;14.95;;;16.00;99.90;;;;;;5090057;28;20047;-65
2021/07/18 03:26:28;;;;;;;22.02;13.05;;;16.10;99.90;;;;;;5091714;28;20044;-65
2021/07/18 03:28:54;;;;;;;24.48;14.85;;;16.10;99.90;;;;;;5090332;28;20036;-65
2021/07/18 03:31:20;;;;;;;22.95;13.15;;;16.10;99.90;;;;;;5091420;28;20036;-65
2021/07/18 03:33:46;;;;;;;23.90;15.10;;;16.20;99.90;;;;;;5091395;28;20089;-65
2021/07/18 03:36:11;;;;;;;21.55;14.60;;;16.20;99.90;;;;;;5091103;28;20500;-65
2021/07/18 03:38:37;;;;;;;27.77;14.77;;;16.20;99.90;;;;;;5089532;28;20047;-65
2021/07/18 03:41:03;;;;;;;23.02;14.90;;;16.20;99.90;;;;;;5089599;28;20072;-65
2021/07/18 03:43:29;;;;;;;34.78;15.05;;;16.20;99.90;;;;;;5090549;28;20060;-65
2021/07/18 03:45:55;;;;;;;41.55;14.25;;;16.20;99.90;;;;;;5090182;28;20493;-65
2021/07/18 03:48:21;;;;;;;32.10;14.60;;;16.20;99.90;;;;;;5090595;28;20055;-65
2021/07/18 03:50:48;;;;;;;19.88;14.38;;;16.20;99.90;;;;;;5091062;28;20082;-65
2021/07/18 03:53:15;;;;;;;25.50;13.65;;;16.20;99.90;;;;;;5091310;28;20066;-65
2021/07/18 03:55:41;;;;;;;45.47;13.82;;;16.20;99.90;;;;;;5089275;28;20535;-65
2021/07/18 03:58:07;;;;;;;26.95;12.65;;;16.30;99.90;;;;;;5090039;28;20040;-65
2021/07/18 04:00:33;;;;;;;39.65;12.18;;;16.30;99.90;;;;;;5090505;28;20040;-65
2021/07/18 04:02:59;;;;;;;43.50;12.15;;;16.30;99.90;;;;;;5090021;28;20484;-66
2021/07/18 04:05:25;;;;;;;54.75;10.68;;;16.30;99.90;;;;;;5097696;28;20047;-65
2021/07/18 04:07:51;;;;;;;49.70;10.48;;;16.30;99.90;;;;;;5094420;28;20062;-65
2021/07/18 04:10:16;;;;;;;40.63;10.27;;;16.30;99.90;;;;;;5090536;28;20074;-65
2021/07/18 04:12:42;;;;;;;47.38;10.07;;;16.30;99.90;;;;;;5090692;28;20039;-65
2021/07/18 04:15:09;;;;;;;38.25;10.57;;;16.30;99.90;;;;;;5089162;28;20048;-65
2021/07/18 04:17:35;;;;;;;20.48;10.20;;;16.30;99.90;;;;;;5090664;28;20089;-65
2021/07/18 04:20:00;;;;;;;18.88;8.50;;;16.30;99.90;;;;;;5089640;28;20127;-66
2021/07/18 04:22:26;;;;;;;43.28;9.80;;;16.30;99.90;;;;;;5089191;28;20454;-65
2021/07/18 04:24:52;;;;;;;26.08;8.70;;;16.30;99.90;;;;;;5090647;28;20047;-65
2021/07/18 04:27:19;;;;;;;18.75;9.48;;;16.40;99.90;;;;;;5090673;28;20028;-65
2021/07/18 04:29:45;;;;;;;23.33;9.20;;;16.40;99.90;;;;;;5090649;28;20040;-65
2021/07/18 04:32:10;;;;;;;19.40;9.93;;;16.40;99.90;;;;;;5089286;28;20039;-66
2021/07/18 04:34:36;;;;;;;13.65;9.52;;;16.40;99.90;;;;;;5090891;28;20394;-65
2021/07/18 04:37:04;;;;;;;13.75;8.63;;;16.50;99.90;;;;;;5090582;28;20101;-65
2021/07/18 04:39:29;;;;;;;12.32;9.13;;;16.50;99.90;;;;;;5090875;28;20040;-65
2021/07/18 04:41:55;;;;;;;12.45;10.02;;;16.60;99.90;;;;;;5089670;28;20081;-65
2021/07/18 04:44:21;;;;;;;10.55;8.80;;;16.70;99.90;;;;;;5090217;28;20083;-65
2021/07/18 04:46:46;;;;;;;12.20;8.55;;;16.70;99.90;;;;;;5082112;28;20048;-65
2021/07/18 04:49:12;;;;;;;11.18;10.18;;;16.80;99.90;;;;;;5088105;28;20047;-65
2021/07/18 04:51:38;;;;;;;13.73;9.57;;;16.90;99.90;;;;;;5090536;28;20098;-65
2021/07/18 04:54:04;;;;;;;10.32;9.32;;;16.90;99.90;;;;;;5090336;28;20043;-65
2021/07/18 04:56:30;;;;;;;10.35;8.75;;;17.00;99.90;;;;;;5079664;28;20131;-65
2021/07/18 04:58:55;;;;;;;12.40;9.27;;;17.10;99.90;;;;;;5088841;28;20444;-65
2021/07/18 05:01:21;;;;;;;13.90;9.23;;;17.10;99.90;;;;;;5090108;28;20036;-65
2021/07/18 05:03:47;;;;;;;10.15;9.13;;;17.20;99.90;;;;;;5089572;28;20048;-65
2021/07/18 05:06:12;;;;;;;10.63;9.52;;;17.20;99.90;;;;;;5069940;28;20091;-65
2021/07/18 05:08:38;;;;;;;9.82;8.57;;;17.30;99.90;;;;;;5086582;28;20046;-65
2021/07/18 05:11:04;;;;;;;11.05;9.93;;;17.40;99.90;;;;;;5093655;28;20048;-65
2021/07/18 05:13:30;;;;;;;10.63;9.50;;;17.50;99.90;;;;;;5093539;28;20484;-65
2021/07/18 05:15:56;;;;;;;9.75;8.75;;;17.60;99.90;;;;;;5093895;28;20044;-65
2021/07/18 05:18:22;;;;;;;9.55;8.57;;;17.60;99.90;;;;;;5093925;28;20047;-65
2021/07/18 05:20:47;;;;;;;10.13;8.40;;;17.70;99.90;;;;;;5091262;28;20587;-65
2021/07/18 05:23:13;;;;;;;9.50;8.52;;;17.70;99.90;;;;;;5091574;28;20480;-65
2021/07/18 05:25:39;;;;;;;9.70;8.70;;;17.70;99.90;;;;;;5091975;28;20407;-64
2021/07/18 05:28:05;;;;;;;9.93;8.93;;;17.70;99.90;;;;;;5093810;28;20090;-65
2021/07/18 05:30:31;;;;;;;9.23;8.27;;;17.80;99.90;;;;;;5093471;28;20036;-65
2021/07/18 05:32:57;;;;;;;10.60;8.25;;;17.90;99.90;;;;;;5093487;28;20092;-65
2021/07/18 05:35:23;;;;;;;12.13;8.77;;;17.90;99.90;;;;;;5093369;28;20482;-65
2021/07/18 05:37:50;;;;;;;10.85;8.85;;;18.00;99.90;;;;;;5093393;28;20090;-65
2021/07/18 05:40:16;;;;;;;9.77;8.77;;;18.00;99.90;;;;;;5083301;28;20112;-65
2021/07/18 05:42:42;;;;;;;10.57;7.93;;;18.10;99.90;;;;;;5079939;28;20043;-65
2021/07/18 05:45:13;;;;;;;9.05;8.07;;;18.20;99.90;;;;;;5092620;28;20541;-65
2021/07/18 05:47:39;;;;;;;10.57;8.43;;;18.30;99.90;;;;;;5091549;28;20496;-65
2021/07/18 05:50:08;;;;;;;10.70;7.78;;;18.50;99.90;;;;;;5093408;28;20044;-65
2021/07/18 05:52:35;;;;;;;9.27;7.53;;;18.60;99.90;;;;;;5090369;28;20036;-66
2021/07/18 05:55:00;;;;;;;9.80;8.80;;;18.70;99.90;;;;;;5091604;28;20038;-66
2021/07/18 05:57:26;;;;;;;9.18;8.27;;;18.90;99.90;;;;;;5083299;28;20276;-66
2021/07/18 05:59:52;;;;;;;9.30;7.65;;;19.40;99.90;;;;;;5079255;28;20036;-66
2021/07/18 06:02:17;;;;;;;8.07;6.68;;;20.60;99.90;;;;;;5087109;28;20548;-66
2021/07/18 06:04:43;;;;;;;10.65;7.18;;;21.80;99.90;;;;;;5072987;28;20047;-66
2021/07/18 06:07:10;;;;;;;7.70;6.20;;;22.90;99.90;;;;;;5072859;28;20042;-66
2021/07/18 06:09:35;;;;;;;7.00;6.35;;;23.80;99.90;;;;;;5090113;28;20040;-66
2021/07/18 06:12:02;;;;;;;7.82;6.72;;;24.60;99.90;;;;;;5092539;28;20044;-66
2021/07/18 06:14:28;;;;;;;7.47;6.40;;;25.20;99.90;;;;;;5091392;28;20558;-67
2021/07/18 06:16:54;;;;;;;7.75;5.97;;;25.90;99.90;;;;;;5091861;28;20036;-66
2021/07/18 06:19:19;;;;;;;6.28;5.75;;;26.40;99.90;;;;;;5073029;28;20075;-68
2021/07/18 06:21:45;;;;;;;8.35;6.10;;;26.90;99.90;;;;;;5082688;28;20056;-68
2021/07/18 06:24:11;;;;;;;6.32;5.60;;;27.40;99.40;;;;;;5084293;28;20513;-67
2021/07/18 06:26:37;;;;;;;7.18;5.32;;;27.70;98.80;;;;;;5081620;28;20044;-67
2021/07/18 06:29:03;;;;;;;6.35;5.70;;;27.90;96.80;;;;;;5089211;28;20036;-66
2021/07/18 06:31:29;;;;;;;8.20;5.78;;;27.90;97.30;;;;;;5092635;28;20172;-66
2021/07/18 06:33:54;;;;;;;7.35;5.93;;;28.20;95.90;;;;;;5088083;28;20089;-65
2021/07/18 06:36:20;;;;;;;7.00;5.38;;;28.30;95.40;;;;;;5089771;28;20032;-66
2021/07/18 06:38:46;;;;;;;8.85;5.80;;;28.30;95.90;;;;;;5092128;28;20047;-66
2021/07/18 06:41:12;;;;;;;5.93;5.10;;;28.60;94.90;;;;;;5091294;28;20051;-66
2021/07/18 06:43:38;;;;;;;5.85;5.15;;;28.90;94.90;;;;;;5092130;28;20032;-66
2021/07/18 06:46:04;;;;;;;6.30;5.07;;;29.00;93.60;;;;;;5092112;28;20086;-66
2021/07/18 06:48:30;;;;;;;6.00;4.80;;;29.40;93.50;;;;;;5092032;28;20062;-66
2021/07/18 06:50:57;;;;;;;6.13;4.32;;;29.40;92.80;;;;;;5082055;28;20181;-67
2021/07/18 06:53:23;;;;;;;6.85;5.20;;;29.80;92.20;;;;;;5091467;28;20401;-67
2021/07/18 06:55:50;;;;;;;6.30;4.60;;;30.10;91.30;;;;;;5090840;28;20113;-66
2021/07/18 06:58:16;;;;;;;7.53;5.20;;;30.20;91.60;;;;;;5092176;28;20558;-67
2021/07/18 07:00:42;;;;;;;6.57;5.40;;;30.00;90.60;;;;;;5091311;28;20036;-67
2021/07/18 07:03:08;;;;;;;8.68;4.70;;;30.30;90.80;;;;;;5091899;28;20127;-68
2021/07/18 07:05:35;;;;;;;5.85;4.70;;;30.60;90.20;;;;;;5091449;28;20051;-69
2021/07/18 07:08:03;;;;;;;6.53;4.38;;;30.70;90.00;;;;;;5077714;28;20051;-69
2021/07/18 07:10:29;;;;;;;5.05;4.05;;;31.00;88.40;;;;;;5084187;28;20117;-68
2021/07/18 07:12:55;;;;;;;5.03;3.92;;;31.20;88.50;;;;;;5092019;28;20040;-69
2021/07/18 07:15:21;;;;;;;5.22;4.18;;;31.30;87.70;;;;;;5090602;28;20070;-68
2021/07/18 07:17:47;;;;;;;4.35;3.95;;;31.60;87.20;;;;;;5088424;28;20098;-69
2021/07/18 07:20:15;;;;;;;5.43;3.97;;;31.80;83.50;;;;;;5089018;28;20040;-69
2021/07/18 07:22:42;;;;;;;6.10;4.18;;;31.80;83.00;;;;;;5087446;28;20051;-68
2021/07/18 07:25:10;;;;;;;6.93;4.68;;;31.80;78.70;;;;;;5089372;28;20035;-65
2021/07/18 07:27:36;;;;;;;4.65;4.07;;;31.90;80.40;;;;;;5091005;28;20155;-65
2021/07/18 07:30:11;;;;;;;5.03;4.40;;;31.90;79.20;;;;;;5090805;28;20036;-65
2021/07/18 07:32:37;;;;;;;4.28;3.88;;;31.60;78.40;;;;;;5090117;28;20135;-65
2021/07/18 07:35:05;;;;;;;5.88;4.10;;;31.20;77.60;;;;;;5090591;28;20048;-65
2021/07/18 07:37:31;;;;;;;4.05;3.17;;;31.00;79.50;;;;;;5089618;28;20067;-65
2021/07/18 07:39:58;;;;;;;5.18;3.90;;;31.30;81.60;;;;;;5087009;28;20048;-66
2021/07/18 07:42:24;;;;;;;3.92;3.53;;;31.60;77.80;;;;;;5086551;28;20034;-66
2021/07/18 07:44:50;;;;;;;4.20;3.80;;;31.60;80.20;;;;;;5088748;28;20032;-65
2021/07/18 07:47:16;;;;;;;4.38;3.40;;;31.70;77.10;;;;;;5087839;28;20048;-66
2021/07/18 07:49:43;;;;;;;4.00;3.40;;;31.90;76.70;;;;;;5087856;28;20081;-65
2021/07/18 07:52:12;;;;;;;4.30;3.40;;;32.00;75.10;;;;;;5088491;28;20028;-66
2021/07/18 07:54:41;;;;;;;5.22;3.33;;;32.10;75.40;;;;;;5085360;28;20052;-65
2021/07/18 07:57:07;;;;;;;4.00;2.90;;;32.00;75.20;;;;;;5087160;28;20036;-69
2021/07/18 07:59:33;;;;;;;3.78;2.67;;;31.70;76.10;;;;;;5085785;28;20066;-69
2021/07/18 08:02:01;;;;;;;4.35;3.40;;;32.20;76.40;;;;;;5086130;28;20040;-64
2021/07/18 08:04:28;;;;;;;4.20;2.95;;;30.70;72.50;;;;;;5087867;28;20047;-64
2021/07/18 08:07:04;;;;;;;2.90;2.35;;;31.50;74.80;;;;;;5087414;28;20040;-68
2021/07/18 08:09:30;;;;;;;3.53;2.33;;;31.60;70.90;;;;;;5088476;28;20032;-68
2021/07/18 08:11:58;;;;;;;4.00;2.72;;;31.20;73.40;;;;;;5081993;28;20132;-69
2021/07/18 08:14:24;;;;;;;5.07;2.10;;;31.10;75.00;;;;;;5088079;28;20077;-68
2021/07/18 08:16:50;;;;;;;2.47;2.25;;;30.50;75.60;;;;;;5089108;28;20057;-69
2021/07/18 08:19:20;;;;;;;4.40;2.15;;;29.70;78.90;;;;;;5088891;28;20039;-68
2021/07/18 08:21:46;;;;;;;3.70;2.30;;;28.50;83.50;;;;;;5081529;28;20075;-70
2021/07/18 08:24:13;;;;;;;3.35;2.30;;;28.30;83.10;;;;;;5087327;28;20051;-70
2021/07/18 08:26:39;;;;;;;3.05;2.28;;;27.90;86.20;;;;;;5086573;28;20047;-69
2021/07/18 08:29:05;;;;;;;2.20;1.98;;;27.20;89.00;;;;;;5082201;28;20038;-68
2021/07/18 08:31:30;;;;;;;3.38;2.05;;;26.60;91.00;;;;;;5079697;28;20036;-69
2021/07/18 08:33:56;;;;;;;4.25;2.10;;;26.70;92.10;;;;;;5085632;28;20119;-69
2021/07/18 08:36:22;;;;;;;2.30;2.05;;;26.40;92.50;;;;;;5093883;28;20032;-69
2021/07/18 08:38:49;;;;;;;3.75;1.90;;;26.10;92.90;;;;;;5083457;28;20407;-68
2021/07/18 08:41:15;;;;;;;3.33;2.08;;;26.00;93.60;;;;;;5081128;28;20063;-69
2021/07/18 08:43:41;;;;;;;3.88;2.33;;;25.90;93.70;;;;;;5087420;28;20040;-68
2021/07/18 08:46:06;;;;;;;3.05;2.35;;;25.90;94.00;;;;;;5088726;28;20048;-67
2021/07/18 08:48:32;;;;;;;2.95;2.08;;;25.80;94.10;;;;;;5090639;28;20801;-68
2021/07/18 08:50:58;;;;;;;2.85;1.85;;;25.70;94.30;;;;;;5086618;28;20050;-68
2021/07/18 08:53:28;;;;;;;4.50;2.17;;;25.70;95.00;;;;;;5088010;28;20176;-67
2021/07/18 08:55:56;;;;;;;4.88;2.42;;;25.70;95.60;;;;;;5087408;28;20044;-68
2021/07/18 08:58:22;;;;;;;3.53;2.40;;;25.60;94.60;;;;;;5085383;28;20043;-68
2021/07/18 09:00:48;;;;;;;4.18;2.03;;;25.60;95.00;;;;;;5075992;28;20047;-67
2021/07/18 09:03:16;;;;;;;2.75;2.50;;;25.40;95.50;;;;;;5092125;28;20415;-67
2021/07/18 09:05:43;;;;;;;2.95;2.15;;;25.50;95.00;;;;;;5092054;28;20044;-68
2021/07/18 09:08:18;;;;;;;3.85;2.40;;;25.50;95.00;;;;;;5093776;28;20039;-67
2021/07/18 09:10:48;;;;;;;4.68;2.53;;;25.60;95.10;;;;;;5093609;28;20059;-68
2021/07/18 09:13:17;;;;;;;3.17;2.20;;;24.70;96.80;;;;;;5094128;28;20125;-68
2021/07/18 09:15:52;;;;;;;2.83;2.40;;;24.90;97.20;;;;;;5092485;28;20548;-67
2021/07/18 09:18:24;;;;;;;2.30;2.10;;;25.00;96.60;;;;;;5090904;28;20042;-68
2021/07/18 09:20:57;;;;;;;2.72;1.95;;;25.30;96.20;;;;;;5094158;28;20043;-67
2021/07/18 09:23:30;;;;;;;4.60;2.85;;;25.50;95.70;;;;;;5091955;28;20081;-68
2021/07/18 09:26:35;;;;;;;3.05;2.20;;;25.50;96.20;;;;;;5093621;28;20785;-68
2021/07/18 09:29:02;;;;;;;3.80;2.55;;;25.60;97.10;;;;;;5010921;28;20837;-68
2021/07/18 09:31:34;;;;;;;3.78;2.13;;;25.60;96.90;;;;;;5011378;28;20046;-67
2021/07/18 09:34:19;;;;;;;3.65;2.50;;;25.80;97.20;;;;;;5053315;28;20036;-67
2021/07/18 09:36:45;;;;;;;3.17;2.45;;;25.90;95.30;;;;;;5093336;28;20496;-68
2021/07/18 09:39:13;;;;;;;4.50;2.20;;;25.80;95.80;;;;;;5090862;28;20106;-67
2021/07/18 09:41:43;;;;;;;2.88;2.13;;;26.00;95.60;;;;;;5092817;28;20409;-68
2021/07/18 09:44:09;;;;;;;2.38;1.95;;;26.00;96.50;;;;;;5092594;28;20039;-67
2021/07/18 09:46:36;;;;;;;4.72;1.80;;;26.00;95.50;;;;;;5092474;28;20044;-67
2021/07/18 09:49:04;;;;;;;3.55;2.17;;;26.10;95.40;;;;;;5092843;28;20086;-67
2021/07/18 09:51:31;;;;;;;3.70;2.00;;;26.10;94.10;;;;;;5092673;28;20040;-67
2021/07/18 09:54:13;;;;;;;3.63;2.20;;;26.20;94.90;;;;;;5091753;28;20497;-67
2021/07/18 09:56:40;;;;;;;2.33;1.80;;;25.80;95.00;;;;;;5089617;28;20470;-68
2021/07/18 09:59:06;;;;;;;3.03;1.90;;;25.70;96.20;;;;;;5092397;28;20089;-68
2021/07/18 10:01:33;;;;;;;3.67;1.92;;;25.90;96.30;;;;;;5091731;28;20054;-68
2021/07/18 10:04:00;;;;;;;2.72;1.60;;;26.10;95.80;;;;;;5087384;28;20036;-68
2021/07/18 10:06:28;;;;;;;2.45;1.75;;;26.10;95.40;;;;;;5092095;28;20032;-67
2021/07/18 10:08:56;;;;;;;3.95;2.08;;;26.20;95.90;;;;;;5091424;28;20067;-67
2021/07/18 10:11:25;;;;;;;4.40;1.85;;;26.30;93.90;;;;;;5090372;28;20059;-67
2021/07/18 10:13:52;;;;;;;3.25;1.63;;;26.20;93.60;;;;;;5090116;28;20028;-68
2021/07/18 10:16:20;;;;;;;3.17;2.00;;;26.30;94.80;;;;;;5090926;28;20118;-68
2021/07/18 10:18:48;;;;;;;3.00;2.00;;;26.60;94.40;;;;;;5090871;28;20036;-68
2021/07/18 10:21:19;;;;;;;3.60;2.05;;;26.60;94.50;;;;;;5085423;28;21437;-67
2021/07/18 10:23:45;;;;;;;;;;;26.70;94.00;;;;;;5086712;28;20689;-67
2021/07/18 10:26:25;;;;;;;3.58;1.70;;;26.70;93.60;;;;;;5118101;22;19932;-65
2021/07/18 10:28:51;;;;;;;1.77;1.67;;;26.70;93.30;;;;;;5072632;28;20064;-65
2021/07/18 10:31:29;;;;;;;4.78;1.80;;;26.70;93.90;;;;;;5069553;28;20047;-65
2021/07/18 10:33:57;;;;;;;3.13;1.70;;;26.80;93.60;;;;;;5072370;28;20037;-65
2021/07/18 10:36:24;;;;;;;3.63;1.98;;;27.00;93.20;;;;;;5070188;28;20036;-65
2021/07/18 10:38:51;;;;;;;2.90;1.70;;;27.10;92.10;;;;;;5072301;28;20032;-65
2021/07/18 10:41:37;;;;;;;3.28;1.90;;;27.20;92.50;;;;;;5069547;28;20493;-65
2021/07/18 10:44:15;;;;;;;2.88;1.60;;;27.20;93.10;;;;;;5052360;28;20035;-65
2021/07/18 10:46:41;;;;;;;2.00;1.52;;;27.30;92.70;;;;;;5057199;28;20041;-65
2021/07/18 10:49:12;;;;;;;2.47;1.40;;;27.50;91.80;;;;;;5078193;28;20619;-65
2021/07/18 10:51:40;;;;;;;2.70;1.20;;;27.40;91.30;;;;;;5085738;28;20036;-65
2021/07/18 10:54:23;;;;;;;1.75;1.55;;;27.40;91.50;;;;;;5072250;28;20043;-64
2021/07/18 10:56:51;;;;;;;2.53;1.35;;;27.70;91.10;;;;;;5078190;28;20040;-64
2021/07/18 10:59:42;;;;;;;2.67;1.60;;;27.40;91.20;;;;;;5067987;28;20040;-64
2021/07/18 11:02:19;;;;;;;2.80;1.75;;;27.60;91.30;;;;;;5051988;28;20032;-65
2021/07/18 11:04:52;;;;;;;4.32;1.92;;;27.40;90.20;;;;;;5069497;28;20037;-64
2021/07/18 11:07:21;;;;;;;2.53;1.50;;;27.40;90.40;;;;;;5071069;28;20041;-64
2021/07/18 11:09:48;;;;;;;2.22;1.63;;;27.50;90.70;;;;;;5070198;28;20072;-64
2021/07/18 11:12:44;;;;;;;4.05;1.58;;;27.00;91.00;;;;;;5071254;28;20111;-65
2021/07/18 11:15:16;;;;;;;2.63;1.55;;;26.80;92.30;;;;;;5060836;28;20135;-65
2021/07/18 11:18:05;;;;;;;4.13;1.80;;;26.70;92.80;;;;;;5071688;28;20036;-65
2021/07/18 11:20:47;;;;;;;2.75;1.95;;;27.00;91.50;;;;;;5069971;28;20534;-65
2021/07/18 11:23:17;;;;;;;2.33;1.50;;;27.40;91.90;;;;;;5071436;28;20394;-65
2021/07/18 11:25:52;;;;;;;1.95;1.50;;;27.50;90.10;;;;;;5056725;28;20080;-65
2021/07/18 11:28:35;;;;;;;2.15;1.88;;;27.70;90.70;;;;;;5051249;28;20114;-65
2021/07/18 11:31:10;;;;;;;3.00;1.63;;;28.00;90.60;;;;;;5055561;28;20037;-65
2021/07/18 11:34:06;;;;;;;2.78;1.83;;;27.90;90.50;;;;;;5052656;28;20444;-65
2021/07/18 11:36:32;;;;;;;2.33;1.80;;;27.80;90.40;;;;;;5066238;28;20075;-65
2021/07/18 11:39:13;;;;;;;3.17;1.90;;;27.80;90.90;;;;;;5070724;28;20375;-65
2021/07/18 11:41:39;;;;;;;3.22;1.77;;;27.40;92.10;;;;;;5069956;28;20091;-65
2021/07/18 11:44:05;;;;;;;3.00;1.92;;;27.40;91.30;;;;;;5071066;28;20033;-65
2021/07/18 11:46:39;;;;;;;3.38;1.88;;;27.30;91.90;;;;;;5070531;28;20036;-65
2021/07/18 11:49:07;;;;;;;4.55;2.40;;;27.40;92.60;;;;;;5071217;28;20044;-65
2021/07/18 11:51:38;;;;;;;3.50;1.83;;;27.70;91.90;;;;;;5069080;28;20064;-65
2021/07/18 11:54:05;;;;;;;2.60;1.83;;;27.50;91.90;;;;;;5071167;28;20040;-65
2021/07/18 11:56:37;;;;;;;3.72;1.92;;;26.80;92.20;;;;;;5070631;28;20036;-65
2021/07/18 11:59:09;;;;;;;1.95;1.65;;;26.80;93.20;;;;;;5070081;28;20062;-65
2021/07/18 12:01:37;;;;;;;2.88;2.03;;;26.80;93.90;;;;;;5065134;28;20095;-65
2021/07/18 12:04:05;;;;;;;3.45;2.15;;;26.80;93.40;;;;;;5063446;28;20043;-65
2021/07/18 12:06:32;;;;;;;2.65;1.85;;;26.20;93.90;;;;;;5070276;28;20041;-65
2021/07/18 12:09:14;;;;;;;2.30;2.10;;;26.50;94.40;;;;;;5071288;28;20044;-65
2021/07/18 12:11:40;;;;;;;2.53;2.30;;;26.90;93.40;;;;;;5060581;28;20037;-65
2021/07/18 12:14:07;;;;;;;3.67;2.20;;;26.40;93.10;;;;;;5060470;28;20064;-65
2021/07/18 12:16:34;;;;;;;3.53;2.10;;;26.70;94.10;;;;;;5069312;28;20040;-65
2021/07/18 12:19:00;;;;;;;3.33;1.88;;;26.70;93.50;;;;;;5072990;28;20064;-65
2021/07/18 12:21:28;;;;;;;3.63;2.10;;;26.90;91.80;;;;;;5067542;28;20072;-65
2021/07/18 12:24:28;;;;;;;2.70;1.95;;;26.70;91.90;;;;;;5054829;28;20033;-65
2021/07/18 12:27:02;;;;;;;7.30;1.77;;;26.80;93.80;;;;;;5063384;28;20052;-65
2021/07/18 12:29:38;;;;;;;2.90;2.30;;;27.00;93.70;;;;;;5074750;28;20028;-65
2021/07/18 12:32:05;;;;;;;4.10;2.10;;;26.60;93.20;;;;;;5061839;28;20044;-65
2021/07/18 12:34:43;;;;;;;2.50;2.20;;;26.80;93.20;;;;;;5069932;28;20032;-65
2021/07/18 12:37:10;;;;;;;2.65;1.92;;;26.60;92.40;;;;;;5063849;28;20044;-65
2021/07/18 12:39:39;;;;;;;4.32;2.20;;;26.60;93.70;;;;;;5054365;28;20079;-65
2021/07/18 12:42:14;;;;;;;7.70;2.22;;;26.80;93.20;;;;;;5069133;28;20040;-65
2021/07/18 12:44:54;;;;;;;2.70;1.83;;;26.70;92.90;;;;;;5054465;28;20163;-64